createdAt,value
2022-08-09T00:04:34.347Z,0.00
2022-08-09T00:09:14.045Z,0.00
2022-08-09T00:14:17.295Z,0.00
2022-08-09T00:19:13.777Z,0.00
2022-08-09T00:24:12.714Z,0.00
2022-08-09T00:29:39.785Z,0.00
2022-08-09T00:34:13.591Z,0.00
2022-08-09T00:40:01.842Z,0.00
2022-08-09T00:44:25.538Z,0.00
2022-08-09T00:49:13.688Z,0.00
2022-08-09T00:54:12.337Z,0.00
2022-08-09T00:59:12.271Z,0.00
2022-08-09T01:04:13.194Z,0.00
2022-08-09T01:09:19.160Z,0.00
2022-08-09T01:14:12.040Z,0.00
2022-08-09T01:19:17.269Z,0.00
2022-08-09T01:24:12.943Z,0.00
2022-08-09T01:29:11.872Z,0.00
2022-08-09T01:34:11.794Z,0.00
2022-08-09T01:39:11.789Z,0.00
2022-08-09T01:44:11.676Z,0.00
2022-08-09T01:49:12.679Z,0.00
2022-08-09T01:54:11.574Z,0.00
2022-08-09T01:59:11.505Z,0.00
2022-08-09T02:04:11.438Z,0.00
2022-08-09T02:09:11.423Z,0.00
2022-08-09T02:14:15.836Z,0.00
2022-08-09T02:19:12.255Z,0.00
2022-08-09T02:24:11.196Z,0.00
2022-08-09T02:29:12.144Z,0.00
2022-08-09T02:34:13.774Z,0.00
2022-08-09T02:39:14.591Z,0.00
2022-08-09T02:44:19.880Z,0.00
2022-08-09T02:49:11.857Z,0.00
2022-08-09T02:54:10.795Z,0.00
2022-08-09T02:59:13.826Z,0.00
2022-08-09T03:04:16.770Z,0.00
2022-08-09T03:09:11.597Z,0.00
2022-08-09T03:14:10.558Z,0.00
2022-08-09T03:19:14.519Z,0.00
2022-08-09T03:24:11.428Z,0.00
2022-08-09T03:29:13.522Z,1.00
2022-08-09T03:34:11.343Z,2.00
2022-08-09T03:39:10.294Z,5.00
2022-08-09T03:44:10.184Z,11.00
2022-08-09T03:49:10.133Z,23.00
2022-08-09T03:54:11.128Z,39.00
2022-08-09T03:59:17.238Z,63.00
2022-08-09T04:04:14.693Z,92.00
2022-08-09T04:09:13.648Z,128.00
2022-08-09T04:14:53.710Z,166.00
2022-08-09T04:19:11.101Z,203.00
2022-08-09T04:24:10.668Z,235.00
2022-08-09T04:29:13.496Z,275.00
2022-08-09T04:34:10.541Z,317.00
2022-08-09T04:39:09.501Z,360.00
2022-08-09T04:44:11.098Z,400.00
2022-08-09T04:49:09.348Z,437.00
2022-08-09T04:54:10.264Z,472.00
2022-08-09T04:59:13.190Z,505.00
2022-08-09T05:04:10.220Z,539.00
2022-08-09T05:09:09.086Z,570.00
2022-08-09T05:14:09.018Z,598.00
2022-08-09T05:19:08.948Z,628.00
2022-08-09T05:24:09.160Z,662.00
2022-08-09T05:29:17.300Z,680.00
2022-08-09T05:34:16.916Z,695.00
2022-08-09T05:39:09.717Z,730.00
2022-08-09T05:44:08.651Z,823.00
2022-08-09T05:49:33.893Z,985.00
2022-08-09T05:54:09.502Z,1163.00
2022-08-09T05:59:08.432Z,1373.00
2022-08-09T06:04:08.437Z,1497.00
2022-08-09T06:09:23.133Z,1664.00
2022-08-09T06:14:09.242Z,1864.00
2022-08-09T06:19:08.189Z,2067.00
2022-08-09T06:24:08.124Z,2487.00
2022-08-09T06:29:08.058Z,2865.00
2022-08-09T06:34:09.492Z,3106.00
2022-08-09T06:39:09.153Z,3345.00
2022-08-09T06:44:07.890Z,3449.00
2022-08-09T06:49:07.822Z,3622.00
2022-08-09T06:54:09.112Z,3615.00
2022-08-09T07:00:49.735Z,3614.00
2022-08-09T07:04:10.366Z,3666.00
2022-08-09T07:09:56.502Z,3770.00
2022-08-09T07:14:08.820Z,3903.00
2022-08-09T07:19:07.773Z,4033.00
2022-08-09T07:24:07.373Z,4239.00
2022-08-09T07:29:13.116Z,4597.00
2022-08-09T07:34:08.260Z,4809.00
2022-08-09T07:39:11.930Z,4893.00
2022-08-09T07:44:08.139Z,4956.00
2022-08-09T07:49:07.109Z,5075.00
2022-08-09T07:54:08.814Z,5422.00
2022-08-09T07:59:12.483Z,5527.00
2022-08-09T08:04:10.459Z,5690.00
2022-08-09T08:09:18.177Z,5893.00
2022-08-09T08:14:07.755Z,6378.00
2022-08-09T08:19:06.725Z,7216.00
2022-08-09T08:24:12.202Z,6860.00
2022-08-09T08:29:07.639Z,7480.00
2022-08-09T08:34:06.561Z,7901.00
2022-08-09T08:39:06.568Z,7704.00
2022-08-09T08:44:06.385Z,7939.00
2022-08-09T08:49:06.404Z,7189.00
2022-08-09T08:54:06.265Z,6984.00
2022-08-09T08:59:18.711Z,7223.00
2022-08-09T09:04:07.147Z,7428.00
2022-08-09T09:09:06.722Z,8902.00
2022-08-09T09:14:07.040Z,19477.00
2022-08-09T09:19:37.191Z,17114.00
2022-08-09T09:24:10.555Z,11806.00
2022-08-09T09:29:11.181Z,9209.00
2022-08-09T09:34:06.788Z,8204.00
2022-08-09T09:39:05.907Z,9135.00
2022-08-09T09:44:11.981Z,18814.00
2022-08-09T09:49:06.613Z,9664.00
2022-08-09T09:54:17.113Z,7299.00
2022-08-09T09:59:06.498Z,6920.00
2022-08-09T10:04:08.895Z,6814.00
2022-08-09T10:09:21.774Z,6751.00
2022-08-09T10:14:07.060Z,6731.00
2022-08-09T10:19:05.305Z,6641.00
2022-08-09T10:24:05.209Z,6426.00
2022-08-09T10:29:34.833Z,6473.00
2022-08-09T10:34:18.883Z,6518.00
2022-08-09T10:39:16.041Z,6672.00
2022-08-09T10:44:05.989Z,6700.00
2022-08-09T10:49:04.897Z,6859.00
2022-08-09T10:54:05.185Z,6933.00
2022-08-09T10:59:04.783Z,7072.00
2022-08-09T11:04:04.897Z,7128.00
2022-08-09T11:09:15.721Z,7497.00
2022-08-09T11:14:05.614Z,8440.00
2022-08-09T11:19:09.762Z,8800.00
2022-08-09T11:24:05.520Z,8531.00
2022-08-09T11:29:04.440Z,8228.00
2022-08-09T11:34:04.392Z,7402.00
2022-08-09T11:39:04.350Z,6793.00
2022-08-09T11:44:04.297Z,6654.00
2022-08-09T11:49:05.127Z,6556.00
2022-08-09T11:54:08.190Z,6708.00
2022-08-09T11:59:05.089Z,6957.00
2022-08-09T12:04:04.106Z,6221.00
2022-08-09T12:09:04.009Z,5669.00
2022-08-09T12:14:09.479Z,5404.00
2022-08-09T12:19:04.866Z,5225.00
2022-08-09T12:24:09.606Z,5135.00
2022-08-09T12:29:29.814Z,4953.00
2022-08-09T12:34:04.678Z,4794.00
2022-08-09T12:39:04.427Z,4741.00
2022-08-09T12:44:05.198Z,4592.00
2022-08-09T12:49:03.588Z,4585.00
2022-08-09T12:54:03.457Z,4533.00
2022-08-09T12:59:03.430Z,4485.00
2022-08-09T13:04:03.320Z,4316.00
2022-08-09T13:09:03.288Z,4740.00
2022-08-09T13:14:36.884Z,5081.00
2022-08-09T13:19:04.136Z,5837.00
2022-08-09T13:24:16.340Z,5679.00
2022-08-09T13:29:04.070Z,5288.00
2022-08-09T13:34:02.988Z,4302.00
2022-08-09T13:41:19.428Z,3780.00
2022-08-09T13:44:05.511Z,3757.00
2022-08-09T13:49:02.806Z,3762.00
2022-08-09T13:54:02.769Z,3597.00
2022-08-09T13:59:02.685Z,3400.00
2022-08-09T14:04:11.150Z,3349.00
2022-08-09T14:09:03.864Z,3464.00
2022-08-09T14:14:24.209Z,3440.00
2022-08-09T14:19:03.512Z,3351.00
2022-08-09T14:24:10.516Z,3350.00
2022-08-09T14:29:03.409Z,3406.00
2022-08-09T14:34:04.346Z,3307.00
2022-08-09T14:39:08.231Z,2161.00
2022-08-09T14:44:03.157Z,3089.00
2022-08-09T14:49:02.123Z,3073.00
2022-08-09T14:54:02.048Z,3124.00
2022-08-09T14:59:02.238Z,3154.00
2022-08-09T15:04:01.965Z,3252.00
2022-08-09T15:09:01.946Z,3150.00
2022-08-09T15:14:04.848Z,2517.00
2022-08-09T15:19:15.804Z,2834.00
2022-08-09T15:24:12.171Z,3109.00
2022-08-09T15:29:04.556Z,2739.00
2022-08-09T15:34:32.420Z,2577.00
2022-08-09T15:39:02.522Z,2416.00
2022-08-09T15:44:02.013Z,2434.00
2022-08-09T15:49:20.663Z,2308.00
2022-08-09T15:54:07.986Z,2343.00
2022-08-09T15:59:02.553Z,2207.00
2022-08-09T16:04:01.269Z,2069.00
2022-08-09T16:09:04.766Z,1970.00
2022-08-09T16:14:02.681Z,1902.00
2022-08-09T16:19:02.033Z,1766.00
2022-08-09T16:24:02.198Z,1650.00
2022-08-09T16:29:05.846Z,1563.00
2022-08-09T16:34:04.056Z,1460.00
2022-08-09T16:39:00.758Z,1367.00
2022-08-09T16:44:00.725Z,1286.00
2022-08-09T16:49:18.670Z,1188.00
2022-08-09T16:54:25.987Z,1086.00
2022-08-09T16:59:06.916Z,1012.00
2022-08-09T17:04:01.480Z,949.00
2022-08-09T17:09:12.105Z,891.00
2022-08-09T17:14:02.197Z,840.00
2022-08-09T17:19:00.268Z,794.00
2022-08-09T17:24:26.867Z,750.00
2022-08-09T17:29:01.214Z,693.00
2022-08-09T17:34:00.125Z,628.00
2022-08-09T17:39:00.076Z,570.00
2022-08-09T17:44:41.728Z,517.00
2022-08-09T17:49:00.947Z,466.00
2022-08-09T17:53:59.857Z,422.00
2022-08-09T17:58:59.939Z,379.00
2022-08-09T18:03:59.729Z,332.00
2022-08-09T18:08:59.687Z,291.00
2022-08-09T18:14:09.429Z,246.00
2022-08-09T18:19:03.524Z,204.00
2022-08-09T18:24:09.448Z,164.00
2022-08-09T18:30:38.041Z,126.00
2022-08-09T18:34:00.390Z,92.00
2022-08-09T18:39:02.614Z,63.00
2022-08-09T18:43:59.226Z,39.00
2022-08-09T18:49:02.008Z,21.00
2022-08-09T18:54:01.888Z,10.00
2022-08-09T18:59:01.148Z,5.00
2022-08-09T19:04:06.219Z,2.00
2022-08-09T19:09:02.444Z,1.00
2022-08-09T19:14:00.267Z,0.00
2022-08-09T19:19:26.180Z,0.00
2022-08-09T19:24:39.668Z,0.00
2022-08-09T19:29:01.901Z,0.00
2022-08-09T19:33:58.613Z,0.00
2022-08-09T19:38:58.586Z,0.00
2022-08-09T19:44:02.661Z,0.00
2022-08-09T19:49:02.020Z,0.00
2022-08-09T19:53:58.370Z,0.00
2022-08-09T19:59:39.326Z,0.00
2022-08-09T20:04:17.100Z,0.00
2022-08-09T20:08:59.535Z,0.00
2022-08-09T20:13:58.242Z,0.00
2022-08-09T20:19:42.639Z,0.00
2022-08-09T20:23:59.012Z,0.00
2022-08-09T20:28:57.954Z,0.00
2022-08-09T20:33:58.493Z,0.00
2022-08-09T20:39:29.069Z,0.00
2022-08-09T20:43:58.747Z,0.00
2022-08-09T20:48:57.663Z,0.00
2022-08-09T20:53:57.626Z,0.00
2022-08-09T20:58:58.811Z,0.00
2022-08-09T21:05:48.438Z,0.00
2022-08-09T21:08:58.433Z,0.00
2022-08-09T21:13:59.272Z,0.00
2022-08-09T21:19:16.942Z,0.00
2022-08-09T21:24:02.109Z,0.00
2022-08-09T21:28:57.299Z,0.00
2022-08-09T21:33:57.114Z,0.00
2022-08-09T21:38:58.605Z,0.00
2022-08-09T21:43:58.187Z,0.00
2022-08-09T21:48:57.031Z,0.00
2022-08-09T21:53:56.895Z,0.00
2022-08-09T21:58:56.808Z,0.00
2022-08-09T22:03:59.210Z,0.00
2022-08-09T22:08:56.656Z,0.00
2022-08-09T22:13:56.701Z,0.00
2022-08-09T22:18:56.593Z,0.00
2022-08-09T22:24:00.092Z,0.00
2022-08-09T22:28:57.415Z,0.00
2022-08-09T22:33:56.744Z,0.00
2022-08-09T22:38:56.299Z,0.00
2022-08-09T22:44:03.683Z,0.00
2022-08-09T22:49:01.875Z,0.00
2022-08-09T22:54:02.211Z,0.00
2022-08-09T22:58:57.042Z,0.00
2022-08-09T23:04:06.121Z,0.00
2022-08-09T23:08:57.110Z,0.00
2022-08-09T23:13:55.860Z,0.00
2022-08-09T23:18:55.808Z,0.00
2022-08-09T23:24:05.423Z,0.00
2022-08-09T23:28:56.661Z,0.00
2022-08-09T23:33:55.573Z,0.00
2022-08-09T23:38:55.528Z,0.00
2022-08-09T23:43:55.460Z,0.00
2022-08-09T23:48:55.407Z,0.00
2022-08-09T23:54:01.984Z,0.00
2022-08-09T23:58:56.287Z,0.00
